Time;durP1;ratioP1;P1;durP2;ratioP2;P2;SDS_P1;SDS_P2;PMS_P1;PMS_P2;Temp;Humidity;BMP_temperature;BMP_pressure;BME280_temperature;BME280_humidity;BME280_pressure;Samples;Min_cycle;Max_cycle;Signal;HPM_P1;HPM_P2
2022/01/09 00:01:42;;;;;;;2.10;1.90;;;5.20;93.90;;;;;;4995217;28;20399;-72
2022/01/09 00:04:08;;;;;;;1.90;1.80;;;5.20;94.40;;;;;;4996367;28;20395;-71
2022/01/09 00:06:34;;;;;;;1.60;1.50;;;5.20;94.90;;;;;;4998558;28;20388;-69
2022/01/09 00:09:00;;;;;;;3.70;1.80;;;5.20;94.70;;;;;;4995941;28;20452;-70
2022/01/09 00:11:26;;;;;;;1.80;1.70;;;5.30;94.10;;;;;;4992771;28;20430;-71
2022/01/09 00:13:56;;;;;;;2.10;2.00;;;5.20;93.50;;;;;;4992645;28;20472;-71
2022/01/09 00:16:23;;;;;;;1.55;1.45;;;5.30;94.20;;;;;;4992574;28;20907;-69
2022/01/09 00:18:50;;;;;;;2.85;1.50;;;5.30;93.10;;;;;;4992662;28;21028;-69
2022/01/09 00:21:16;;;;;;;2.00;1.50;;;5.30;92.10;;;;;;4992427;28;20418;-69
2022/01/09 00:23:42;;;;;;;1.73;1.38;;;5.30;91.90;;;;;;4992615;28;20437;-71
2022/01/09 00:26:09;;;;;;;1.83;1.60;;;5.30;91.40;;;;;;4990766;28;20882;-70
2022/01/09 00:28:35;;;;;;;1.92;1.60;;;5.30;91.10;;;;;;4991466;28;20422;-71
2022/01/09 00:31:01;;;;;;;1.65;1.50;;;5.30;92.00;;;;;;4992046;28;20378;-69
2022/01/09 00:33:27;;;;;;;2.60;1.40;;;5.30;93.30;;;;;;4991707;28;20386;-70
2022/01/09 00:35:54;;;;;;;1.30;1.20;;;5.40;94.10;;;;;;4991246;28;20450;-69
2022/01/09 00:38:20;;;;;;;1.90;1.80;;;5.40;92.70;;;;;;4991390;28;20410;-70
2022/01/09 00:40:46;;;;;;;1.30;1.20;;;5.30;95.00;;;;;;4990661;28;20404;-71
2022/01/09 00:43:11;;;;;;;1.60;1.50;;;5.40;92.90;;;;;;4990584;28;20473;-70
2022/01/09 00:45:39;;;;;;;1.50;1.40;;;5.40;92.30;;;;;;4991694;28;20415;-70
2022/01/09 00:48:05;;;;;;;1.35;1.25;;;5.40;93.40;;;;;;4990085;28;20426;-72
2022/01/09 00:50:31;;;;;;;2.50;1.60;;;5.40;92.30;;;;;;4991575;28;20414;-70
2022/01/09 00:52:57;;;;;;;1.50;1.40;;;5.40;92.70;;;;;;4991656;28;20387;-71
2022/01/09 00:55:22;;;;;;;4.03;1.90;;;5.40;92.60;;;;;;4991413;28;20390;-70
2022/01/09 00:57:48;;;;;;;1.60;1.50;;;5.40;92.30;;;;;;4991171;28;20429;-71
2022/01/09 01:00:14;;;;;;;3.77;1.77;;;5.40;92.80;;;;;;4991176;28;20387;-70
2022/01/09 01:02:40;;;;;;;1.70;1.60;;;5.50;91.40;;;;;;4990535;28;20397;-72
2022/01/09 01:05:08;;;;;;;1.80;1.40;;;5.50;93.10;;;;;;4991596;28;20391;-70
2022/01/09 01:07:34;;;;;;;1.50;1.40;;;5.50;92.00;;;;;;4991203;28;20517;-70
2022/01/09 01:10:00;;;;;;;2.70;1.60;;;5.50;90.80;;;;;;4991129;28;20414;-69
2022/01/09 01:12:27;;;;;;;1.60;1.50;;;5.50;91.60;;;;;;4991308;28;20403;-70
2022/01/09 01:14:53;;;;;;;1.70;1.60;;;5.50;90.80;;;;;;4991312;28;20391;-70
2022/01/09 01:17:20;;;;;;;2.10;1.70;;;5.50;91.00;;;;;;4990825;28;20393;-70
2022/01/09 01:19:46;;;;;;;2.10;2.00;;;5.50;91.90;;;;;;4991070;28;20744;-70
2022/01/09 01:22:13;;;;;;;1.80;1.70;;;5.50;92.70;;;;;;4990945;28;20390;-69
2022/01/09 01:24:39;;;;;;;1.77;1.63;;;5.50;92.80;;;;;;4991221;28;20398;-70
2022/01/09 01:27:05;;;;;;;2.33;2.13;;;5.50;91.60;;;;;;4990815;28;20433;-69
2022/01/09 01:29:31;;;;;;;2.20;2.10;;;5.50;93.00;;;;;;4991081;28;20422;-72
2022/01/09 01:31:56;;;;;;;2.60;2.40;;;5.50;93.60;;;;;;4990917;28;20383;-70
2022/01/09 01:34:22;;;;;;;2.93;2.40;;;5.50;94.80;;;;;;4991133;28;21052;-71
2022/01/09 01:36:47;;;;;;;2.40;2.20;;;5.50;96.20;;;;;;4990827;28;20413;-70
2022/01/09 01:39:13;;;;;;;2.87;2.50;;;5.50;96.00;;;;;;4990969;28;20461;-69
2022/01/09 01:41:38;;;;;;;1.80;1.70;;;5.50;96.60;;;;;;4991026;28;20874;-70
2022/01/09 01:44:13;;;;;;;1.90;1.80;;;5.50;96.80;;;;;;4990810;28;20863;-69
2022/01/09 01:46:39;;;;;;;2.55;2.00;;;5.50;96.70;;;;;;4990967;28;20473;-70
2022/01/09 01:49:06;;;;;;;2.63;2.42;;;5.50;98.10;;;;;;4990657;28;20417;-69
2022/01/09 01:51:34;;;;;;;3.13;2.05;;;5.50;97.50;;;;;;4991172;28;20386;-68
2022/01/09 01:54:03;;;;;;;3.78;2.60;;;5.60;98.20;;;;;;4991102;28;20418;-70
2022/01/09 01:56:29;;;;;;;4.28;2.72;;;5.50;97.20;;;;;;4990707;28;20402;-71
2022/01/09 01:58:56;;;;;;;2.33;2.13;;;5.50;98.20;;;;;;4990791;28;20390;-69
2022/01/09 02:01:21;;;;;;;2.00;1.90;;;5.50;99.70;;;;;;4990833;28;20387;-68
2022/01/09 02:03:47;;;;;;;4.97;3.38;;;5.60;99.50;;;;;;4991112;28;20808;-73
2022/01/09 02:06:16;;;;;;;2.35;2.15;;;5.60;98.80;;;;;;4989407;28;21054;-69
2022/01/09 02:08:43;;;;;;;2.10;2.00;;;5.60;99.30;;;;;;4990546;28;20425;-68
2022/01/09 02:11:10;;;;;;;2.40;2.20;;;5.80;97.50;;;;;;4990813;28;20890;-70
2022/01/09 02:13:39;;;;;;;2.58;1.90;;;5.90;96.10;;;;;;4992188;28;20710;-70
2022/01/09 02:16:05;;;;;;;2.20;2.00;;;6.10;93.90;;;;;;4994777;28;20378;-69
2022/01/09 02:18:30;;;;;;;1.80;1.70;;;6.20;90.60;;;;;;4994219;28;20740;-70
2022/01/09 02:20:56;;;;;;;1.90;1.67;;;6.20;89.20;;;;;;4994386;28;20401;-69
2022/01/09 02:23:21;;;;;;;3.37;1.60;;;6.30;88.50;;;;;;4994471;28;20391;-68
2022/01/09 02:25:48;;;;;;;2.80;1.60;;;6.30;89.10;;;;;;4994340;28;20460;-69
2022/01/09 02:28:15;;;;;;;2.33;1.30;;;6.30;88.80;;;;;;4993891;28;20424;-70
2022/01/09 02:30:42;;;;;;;2.50;1.17;;;6.40;84.90;;;;;;4994537;28;20394;-70
2022/01/09 02:33:09;;;;;;;1.17;1.08;;;6.10;96.80;;;;;;4994205;28;20387;-69
2022/01/09 02:35:36;;;;;;;1.75;1.17;;;5.60;99.90;;;;;;4994628;28;20448;-70
2022/01/09 02:38:05;;;;;;;1.30;1.20;;;5.40;99.90;;;;;;4994299;28;20441;-69
2022/01/09 02:40:31;;;;;;;1.98;1.80;;;5.30;99.90;;;;;;4994055;28;20963;-69
2022/01/09 02:42:56;;;;;;;2.40;1.40;;;5.20;99.90;;;;;;4994161;28;20387;-69
2022/01/09 02:45:24;;;;;;;1.10;1.00;;;5.30;99.90;;;;;;4994094;28;20438;-70
2022/01/09 02:47:52;;;;;;;3.70;0.90;;;5.20;99.90;;;;;;4994190;28;20389;-69
2022/01/09 02:50:32;;;;;;;1.83;1.20;;;5.10;99.90;;;;;;4994825;28;20771;-69
2022/01/09 02:53:00;;;;;;;6.07;1.27;;;5.10;99.90;;;;;;4994262;28;20394;-70
2022/01/09 02:55:28;;;;;;;5.57;1.27;;;5.00;99.90;;;;;;4995457;28;20335;-69
2022/01/09 02:57:59;;;;;;;3.35;1.48;;;5.00;99.90;;;;;;4995093;28;20292;-70
2022/01/09 03:00:26;;;;;;;;;;;4.90;99.90;;;;;;4995989;28;20030;-69
2022/01/09 03:02:52;;;;;;;5.85;1.30;;;4.90;99.90;;;;;;4994687;28;20382;-70
2022/01/09 03:05:18;;;;;;;1.80;0.80;;;4.90;99.90;;;;;;4993727;28;20947;-70
2022/01/09 03:07:45;;;;;;;5.70;1.20;;;4.90;99.90;;;;;;4992645;28;20954;-68
2022/01/09 03:10:12;;;;;;;8.33;1.90;;;4.90;99.90;;;;;;4993395;28;20485;-69
2022/01/09 03:12:38;;;;;;;10.40;1.60;;;5.00;99.90;;;;;;4993763;28;20957;-69
2022/01/09 03:15:06;;;;;;;10.63;1.60;;;5.00;99.90;;;;;;4993899;28;20488;-69
2022/01/09 03:17:32;;;;;;;12.13;2.30;;;5.00;99.90;;;;;;4993613;28;20383;-69
2022/01/09 03:19:58;;;;;;;6.80;1.88;;;5.10;99.90;;;;;;4993300;28;20426;-69
2022/01/09 03:22:23;;;;;;;8.47;1.73;;;5.10;99.90;;;;;;4993396;28;20398;-69
2022/01/09 03:24:49;;;;;;;8.43;3.50;;;5.20;99.90;;;;;;4992583;28;20436;-70
2022/01/09 03:27:15;;;;;;;12.60;2.60;;;5.20;99.90;;;;;;4993098;28;20929;-69
2022/01/09 03:29:41;;;;;;;13.27;3.28;;;5.20;99.90;;;;;;4993106;28;20411;-70
2022/01/09 03:32:08;;;;;;;27.30;4.55;;;5.30;99.90;;;;;;4993154;28;20379;-70
2022/01/09 03:34:34;;;;;;;23.80;4.30;;;5.40;99.90;;;;;;4992771;28;20425;-69
2022/01/09 03:37:00;;;;;;;30.30;4.45;;;5.40;99.90;;;;;;4992675;28;20386;-69
2022/01/09 03:39:25;;;;;;;19.60;4.40;;;5.50;99.90;;;;;;4993441;28;20437;-68
2022/01/09 03:41:51;;;;;;;44.40;6.40;;;5.50;99.90;;;;;;4992880;28;20394;-69
2022/01/09 03:44:17;;;;;;;31.35;5.22;;;5.50;99.90;;;;;;4993225;28;20394;-69
2022/01/09 03:46:42;;;;;;;35.00;6.43;;;5.50;99.90;;;;;;4993045;28;20954;-70
2022/01/09 03:49:08;;;;;;;26.50;4.47;;;5.50;99.90;;;;;;4991562;28;20410;-70
2022/01/09 03:51:36;;;;;;;27.23;5.20;;;5.60;99.90;;;;;;4993327;28;20382;-70
2022/01/09 03:54:04;;;;;;;32.97;4.83;;;5.50;99.90;;;;;;4992827;28;20902;-70
2022/01/09 03:56:29;;;;;;;19.23;3.60;;;5.60;99.90;;;;;;4993324;28;20386;-70
2022/01/09 03:58:55;;;;;;;19.37;3.47;;;5.60;99.90;;;;;;4994684;28;20400;-70
2022/01/09 04:01:20;;;;;;;25.20;4.17;;;5.60;99.90;;;;;;4996488;28;20425;-70
2022/01/09 04:03:46;;;;;;;33.58;5.03;;;5.60;99.90;;;;;;4995494;28;20452;-70
2022/01/09 04:06:12;;;;;;;22.00;3.50;;;5.60;99.90;;;;;;4995801;28;20402;-70
2022/01/09 04:08:38;;;;;;;28.42;3.90;;;5.60;99.90;;;;;;4994582;28;20424;-71
2022/01/09 04:11:05;;;;;;;16.92;2.65;;;5.60;99.90;;;;;;4997429;28;20394;-70
2022/01/09 04:13:31;;;;;;;17.83;3.00;;;5.50;99.90;;;;;;4998333;28;20402;-69
2022/01/09 04:15:58;;;;;;;17.38;3.20;;;5.50;99.90;;;;;;4997600;28;20759;-70
2022/01/09 04:18:24;;;;;;;15.88;3.60;;;5.50;99.90;;;;;;4998723;28;20472;-69
2022/01/09 04:20:50;;;;;;;9.88;2.85;;;5.60;99.90;;;;;;4998621;28;20173;-69
2022/01/09 04:23:17;;;;;;;23.00;4.28;;;5.60;99.90;;;;;;4998261;28;20184;-70
2022/01/09 04:25:44;;;;;;;13.10;3.50;;;5.60;99.90;;;;;;4998651;28;20223;-70
2022/01/09 04:28:10;;;;;;;19.70;4.65;;;5.60;99.90;;;;;;4997799;28;20216;-70
2022/01/09 04:30:36;;;;;;;27.20;5.10;;;5.60;99.90;;;;;;4966667;23;1749198;-72
2022/01/09 04:33:02;;;;;;;25.27;3.85;;;5.70;99.90;;;;;;5017773;28;20576;-71
2022/01/09 04:35:28;;;;;;;22.77;7.15;;;5.80;99.90;;;;;;5013784;28;20176;-70
2022/01/09 04:37:54;;;;;;;37.03;6.50;;;5.80;99.90;;;;;;5012926;28;20180;-71
2022/01/09 04:40:21;;;;;;;12.82;3.95;;;5.70;99.90;;;;;;5013104;28;20192;-71
2022/01/09 04:42:54;;;;;;;29.90;3.47;;;5.80;99.90;;;;;;5013563;28;20172;-72
2022/01/09 04:45:22;;;;;;;13.32;4.00;;;5.80;99.90;;;;;;5013083;28;20306;-72
2022/01/09 04:47:50;;;;;;;44.28;7.32;;;5.80;99.90;;;;;;5012838;28;20169;-71
2022/01/09 04:50:22;;;;;;;38.85;8.07;;;5.80;99.90;;;;;;5013275;28;20200;-72
2022/01/09 04:52:51;;;;;;;35.38;6.40;;;5.80;99.90;;;;;;5013369;28;20173;-73
2022/01/09 04:55:17;;;;;;;40.63;6.30;;;5.80;99.90;;;;;;5013183;28;20171;-72
2022/01/09 04:57:42;;;;;;;38.67;5.70;;;5.90;99.90;;;;;;5012799;28;20176;-71
2022/01/09 05:00:09;;;;;;;10.50;4.00;;;5.90;99.90;;;;;;4995147;28;20193;-71
2022/01/09 05:02:35;;;;;;;36.80;7.53;;;5.80;99.90;;;;;;5013035;28;20633;-71
2022/01/09 05:05:02;;;;;;;39.90;6.40;;;5.80;99.90;;;;;;5013196;28;20190;-71
2022/01/09 05:07:28;;;;;;;40.78;6.57;;;5.80;99.90;;;;;;5012794;28;20177;-71
2022/01/09 05:09:54;;;;;;;36.93;6.80;;;5.80;99.90;;;;;;5012878;28;20208;-72
2022/01/09 05:12:19;;;;;;;27.73;5.20;;;5.80;99.90;;;;;;5012970;28;20164;-72
2022/01/09 05:14:45;;;;;;;43.53;6.77;;;5.80;99.90;;;;;;5012995;28;20169;-71
2022/01/09 05:17:10;;;;;;;27.87;7.30;;;5.80;99.90;;;;;;5012541;28;20177;-71
2022/01/09 05:19:36;;;;;;;39.10;4.80;;;5.70;99.90;;;;;;5013584;28;20223;-71
2022/01/09 05:22:03;;;;;;;27.40;4.70;;;5.70;99.90;;;;;;5013558;28;20179;-71
2022/01/09 05:24:29;;;;;;;29.50;5.25;;;5.70;99.90;;;;;;5013841;28;20641;-73
2022/01/09 05:26:55;;;;;;;32.28;5.20;;;5.70;99.90;;;;;;5014067;28;20184;-73
2022/01/09 05:29:21;;;;;;;18.23;5.00;;;5.70;99.90;;;;;;5013144;28;20212;-73
2022/01/09 05:31:48;;;;;;;25.38;4.32;;;5.60;99.90;;;;;;4995552;28;20424;-71
2022/01/09 05:34:15;;;;;;;40.65;5.30;;;5.60;99.90;;;;;;5013385;28;20176;-70
2022/01/09 05:36:41;;;;;;;21.38;4.45;;;5.60;99.90;;;;;;5012162;28;20446;-71
2022/01/09 05:39:07;;;;;;;23.27;4.38;;;5.60;99.90;;;;;;4994670;28;20255;-72
2022/01/09 05:41:32;;;;;;;35.00;4.63;;;5.60;99.90;;;;;;5012218;28;20177;-72
2022/01/09 05:43:58;;;;;;;30.37;5.10;;;5.70;99.90;;;;;;5012561;28;20177;-71
2022/01/09 05:46:24;;;;;;;22.43;5.23;;;5.70;99.90;;;;;;5012603;28;20176;-71
2022/01/09 05:48:49;;;;;;;13.97;3.40;;;5.60;99.90;;;;;;5013564;28;20212;-71
2022/01/09 05:51:15;;;;;;;30.17;5.70;;;5.60;99.90;;;;;;5016176;28;20226;-70
2022/01/09 05:53:41;;;;;;;22.93;3.77;;;5.60;99.90;;;;;;5016803;28;20184;-71
2022/01/09 05:56:07;;;;;;;26.47;4.20;;;5.60;99.90;;;;;;5008492;28;20422;-72
2022/01/09 05:58:34;;;;;;;33.50;4.50;;;5.60;99.90;;;;;;5027593;28;20185;-71
2022/01/09 06:01:00;;;;;;;26.75;4.10;;;5.50;99.90;;;;;;5008121;28;20168;-70
2022/01/09 06:03:26;;;;;;;26.97;4.40;;;5.60;99.90;;;;;;4999988;28;20206;-70
2022/01/09 06:05:51;;;;;;;26.63;3.93;;;5.50;99.90;;;;;;5016073;28;20414;-73
2022/01/09 06:08:17;;;;;;;39.53;3.87;;;5.50;99.90;;;;;;5015246;28;20255;-71
2022/01/09 06:10:43;;;;;;;28.20;6.30;;;5.60;99.90;;;;;;4998082;28;20189;-71
2022/01/09 06:13:08;;;;;;;19.37;4.23;;;5.60;99.90;;;;;;5015825;28;20172;-73
2022/01/09 06:15:34;;;;;;;25.43;5.03;;;5.60;99.90;;;;;;5016421;28;20410;-72
2022/01/09 06:18:00;;;;;;;22.33;5.20;;;5.60;99.30;;;;;;4998107;28;20191;-73
2022/01/09 06:20:25;;;;;;;28.80;3.40;;;5.60;98.40;;;;;;5016516;28;20258;-72
2022/01/09 06:22:51;;;;;;;24.27;4.20;;;5.60;99.40;;;;;;5016832;28;20518;-75
2022/01/09 06:25:16;;;;;;;22.50;4.03;;;5.60;94.50;;;;;;5016040;28;20175;-72
2022/01/09 06:27:42;;;;;;;21.27;2.83;;;5.50;97.90;;;;;;5015305;28;20211;-72
2022/01/09 06:30:10;;;;;;;16.67;3.03;;;5.50;95.00;;;;;;5015531;28;20588;-74
2022/01/09 06:32:36;;;;;;;22.00;4.32;;;5.60;94.10;;;;;;5015787;28;20526;-74
2022/01/09 06:35:03;;;;;;;20.20;4.43;;;5.50;94.00;;;;;;5016199;28;20176;-71
2022/01/09 06:37:29;;;;;;;26.63;3.25;;;5.50;95.00;;;;;;4998689;28;20199;-72
2022/01/09 06:39:55;;;;;;;41.07;4.30;;;5.50;92.10;;;;;;4998851;28;20681;-72
2022/01/09 06:42:20;;;;;;;23.53;4.50;;;5.50;92.90;;;;;;4999428;28;20242;-72
2022/01/09 06:44:46;;;;;;;13.23;3.10;;;5.50;92.50;;;;;;5015778;28;20169;-74
2022/01/09 06:47:11;;;;;;;10.73;2.67;;;5.50;92.80;;;;;;4997196;28;20541;-72
2022/01/09 06:49:37;;;;;;;18.60;2.90;;;5.50;90.40;;;;;;4995344;28;20570;-70
2022/01/09 06:52:03;;;;;;;10.80;3.63;;;5.50;89.20;;;;;;4995190;28;20177;-72
2022/01/09 06:54:30;;;;;;;22.45;3.30;;;5.50;90.10;;;;;;4995543;28;20219;-71
2022/01/09 06:56:55;;;;;;;7.50;2.40;;;5.50;89.60;;;;;;4978166;28;20177;-71
2022/01/09 06:59:21;;;;;;;13.83;3.33;;;5.50;88.30;;;;;;4993467;28;20292;-73
2022/01/09 07:01:46;;;;;;;18.67;4.40;;;5.50;84.80;;;;;;4995728;28;20311;-73
2022/01/09 07:04:12;;;;;;;21.40;4.00;;;5.50;85.90;;;;;;4996458;28;20494;-73
2022/01/09 07:06:37;;;;;;;21.20;4.00;;;5.50;85.10;;;;;;4996260;28;20169;-71
2022/01/09 07:09:04;;;;;;;5.30;2.13;;;5.40;84.00;;;;;;4997390;28;20208;-72
2022/01/09 07:11:31;;;;;;;7.45;2.25;;;5.50;84.40;;;;;;4999070;28;20251;-73
2022/01/09 07:13:57;;;;;;;11.70;2.00;;;5.40;83.30;;;;;;4998696;28;20593;-73
2022/01/09 07:16:22;;;;;;;13.93;2.70;;;5.40;82.90;;;;;;5005529;28;20173;-73
2022/01/09 07:18:48;;;;;;;12.90;2.37;;;5.40;80.40;;;;;;5005696;28;20209;-74
2022/01/09 07:21:14;;;;;;;17.13;2.83;;;5.50;80.80;;;;;;5009075;28;20201;-72
2022/01/09 07:23:39;;;;;;;9.13;3.47;;;5.40;82.00;;;;;;4985460;28;20541;-72
2022/01/09 07:26:05;;;;;;;11.33;3.70;;;5.40;82.30;;;;;;4995169;28;20583;-77
2022/01/09 07:28:31;;;;;;;15.90;2.80;;;5.40;82.20;;;;;;4977205;28;20209;-73
2022/01/09 07:30:56;;;;;;;14.67;3.37;;;5.40;83.80;;;;;;4995040;28;20248;-72
2022/01/09 07:33:22;;;;;;;17.50;4.97;;;5.40;84.20;;;;;;4994813;28;20169;-72
2022/01/09 07:35:48;;;;;;;18.73;3.13;;;5.40;83.90;;;;;;4995085;28;20204;-73
2022/01/09 07:38:13;;;;;;;14.47;3.50;;;5.40;84.50;;;;;;4995061;28;20536;-73
2022/01/09 07:40:39;;;;;;;18.10;2.87;;;5.30;86.40;;;;;;4995673;28;20200;-73
2022/01/09 07:43:05;;;;;;;17.97;3.20;;;5.30;87.60;;;;;;4994866;28;20185;-71
2022/01/09 07:45:30;;;;;;;16.90;3.17;;;5.40;86.80;;;;;;4994423;28;20517;-70
2022/01/09 07:47:58;;;;;;;11.13;3.10;;;5.40;86.10;;;;;;4994080;28;20166;-73
2022/01/09 07:50:24;;;;;;;14.85;3.00;;;5.30;87.10;;;;;;4993928;28;20312;-72
2022/01/09 07:52:50;;;;;;;24.02;3.67;;;5.30;88.20;;;;;;4976807;28;20717;-74
2022/01/09 07:55:19;;;;;;;14.35;3.80;;;5.40;86.90;;;;;;4976881;28;20181;-72
2022/01/09 07:57:45;;;;;;;8.95;3.20;;;5.40;85.00;;;;;;4976455;28;20181;-71
2022/01/09 08:00:12;;;;;;;17.33;3.72;;;5.50;83.10;;;;;;4993993;28;20323;-72
2022/01/09 08:02:37;;;;;;;19.05;3.83;;;5.50;81.40;;;;;;4994294;28;20184;-72
2022/01/09 08:05:04;;;;;;;20.53;6.07;;;5.50;80.60;;;;;;4993439;28;20207;-72
2022/01/09 08:07:30;;;;;;;14.70;3.72;;;5.60;80.10;;;;;;4994204;28;20193;-72
2022/01/09 08:09:55;;;;;;;18.57;3.73;;;5.50;79.80;;;;;;4994212;28;20221;-71
2022/01/09 08:12:21;;;;;;;18.03;3.50;;;5.50;79.40;;;;;;4976254;28;20584;-72
2022/01/09 08:14:47;;;;;;;14.23;3.13;;;5.40;80.40;;;;;;4993702;28;20542;-72
2022/01/09 08:17:13;;;;;;;10.73;2.80;;;5.40;79.80;;;;;;4993467;28;20197;-71
2022/01/09 08:19:40;;;;;;;17.48;4.22;;;5.50;79.40;;;;;;4993883;28;20189;-71
2022/01/09 08:22:06;;;;;;;13.60;3.28;;;5.50;78.30;;;;;;4993658;28;20189;-71
2022/01/09 08:24:36;;;;;;;16.33;2.60;;;5.60;76.70;;;;;;4993768;28;20177;-73
2022/01/09 08:27:03;;;;;;;19.70;2.97;;;5.70;73.50;;;;;;4993570;28;20239;-72
2022/01/09 08:29:28;;;;;;;18.20;3.85;;;5.70;73.30;;;;;;4993359;28;20232;-71
2022/01/09 08:31:54;;;;;;;4.27;1.87;;;5.70;71.10;;;;;;4993295;28;20512;-72
2022/01/09 08:34:20;;;;;;;8.13;2.00;;;5.70;70.30;;;;;;4993500;28;20176;-72
2022/01/09 08:36:46;;;;;;;12.23;2.08;;;5.70;70.00;;;;;;4993215;28;20248;-70
2022/01/09 08:39:12;;;;;;;13.87;2.77;;;5.80;69.10;;;;;;4993402;28;20741;-72
2022/01/09 08:41:38;;;;;;;10.77;2.03;;;5.80;70.10;;;;;;4992586;28;20817;-72
2022/01/09 08:44:05;;;;;;;9.60;2.40;;;5.80;69.30;;;;;;5000884;28;20181;-72
2022/01/09 08:46:31;;;;;;;21.13;2.97;;;5.80;70.00;;;;;;5002600;28;20192;-71
2022/01/09 08:48:58;;;;;;;10.32;2.03;;;5.80;68.80;;;;;;4997355;28;20695;-71
2022/01/09 08:51:24;;;;;;;13.80;2.50;;;5.80;66.10;;;;;;4993653;28;20177;-72
2022/01/09 08:53:52;;;;;;;7.97;2.10;;;5.90;67.20;;;;;;4993826;28;20219;-73
2022/01/09 08:56:22;;;;;;;6.22;2.58;;;5.90;67.40;;;;;;4994153;28;20248;-73
2022/01/09 08:58:49;;;;;;;12.50;2.17;;;5.90;67.70;;;;;;5004861;28;20196;-72
2022/01/09 09:01:15;;;;;;;11.02;2.30;;;6.00;67.40;;;;;;5007941;28;20176;-72
2022/01/09 09:03:41;;;;;;;24.30;2.60;;;6.00;65.20;;;;;;5000315;28;20189;-70
2022/01/09 09:06:12;;;;;;;12.23;3.10;;;6.10;66.50;;;;;;4993881;28;20412;-72
2022/01/09 09:08:39;;;;;;;13.23;2.55;;;6.10;65.80;;;;;;4993199;28;20216;-73
2022/01/09 09:11:09;;;;;;;25.40;3.80;;;6.10;67.70;;;;;;5001609;28;20232;-70
2022/01/09 09:13:35;;;;;;;13.35;3.17;;;6.20;67.70;;;;;;4997119;28;20177;-71
2022/01/09 09:16:02;;;;;;;14.10;3.60;;;6.20;69.20;;;;;;4999063;28;20173;-70
2022/01/09 09:18:27;;;;;;;14.75;3.30;;;6.30;68.50;;;;;;4999894;28;20228;-72
2022/01/09 09:20:53;;;;;;;17.67;3.70;;;6.30;64.10;;;;;;4993690;28;20169;-72
2022/01/09 09:23:19;;;;;;;21.53;3.90;;;6.40;65.40;;;;;;4994653;28;20173;-72
2022/01/09 09:25:45;;;;;;;13.52;4.22;;;6.50;67.60;;;;;;4980843;28;20169;-72
2022/01/09 09:28:11;;;;;;;24.13;4.00;;;6.50;63.90;;;;;;4997013;28;20263;-70
2022/01/09 09:30:37;;;;;;;14.67;3.83;;;6.50;61.50;;;;;;4996880;28;20335;-73
2022/01/09 09:33:05;;;;;;;11.33;3.70;;;6.50;63.90;;;;;;4997336;28;20177;-72
2022/01/09 09:35:31;;;;;;;13.38;2.72;;;6.50;63.90;;;;;;4997387;28;20196;-72
2022/01/09 09:37:57;;;;;;;11.73;3.88;;;6.50;62.90;;;;;;4996972;28;20181;-73
2022/01/09 09:40:22;;;;;;;11.03;2.93;;;6.60;64.50;;;;;;4996806;28;20199;-72
2022/01/09 09:42:48;;;;;;;12.27;3.90;;;6.60;61.40;;;;;;4996786;28;20184;-72
2022/01/09 09:45:14;;;;;;;12.33;2.83;;;6.60;61.50;;;;;;4995499;28;20239;-72
2022/01/09 09:47:40;;;;;;;12.53;2.70;;;6.60;61.10;;;;;;4979310;28;20540;-70
2022/01/09 09:50:09;;;;;;;11.98;2.53;;;6.60;61.30;;;;;;4996812;28;20244;-71
2022/01/09 09:52:34;;;;;;;22.70;4.72;;;6.60;59.10;;;;;;4997327;28;20669;-73
2022/01/09 09:55:00;;;;;;;9.03;2.50;;;6.60;59.90;;;;;;4997598;28;20169;-72
2022/01/09 09:57:27;;;;;;;11.80;2.77;;;6.60;61.30;;;;;;4996608;28;20603;-72
2022/01/09 10:00:12;;;;;;;8.82;3.35;;;6.60;59.20;;;;;;4996975;28;20193;-73
2022/01/09 10:02:51;;;;;;;11.73;3.50;;;6.60;61.90;;;;;;4996614;28;20239;-72
2022/01/09 10:05:19;;;;;;;20.42;3.80;;;6.60;59.10;;;;;;4979400;28;20177;-73
2022/01/09 10:07:44;;;;;;;8.02;2.72;;;6.60;58.20;;;;;;4997718;28;20216;-72
2022/01/09 10:10:14;;;;;;;15.77;2.80;;;6.50;58.40;;;;;;4998248;28;20212;-71
2022/01/09 10:12:41;;;;;;;14.10;3.25;;;6.40;59.80;;;;;;5000798;28;20427;-74
2022/01/09 10:15:17;;;;;;;13.20;3.40;;;6.40;61.70;;;;;;5000844;28;20646;-73
2022/01/09 10:17:45;;;;;;;15.55;3.45;;;6.40;61.70;;;;;;5001685;28;20173;-74
2022/01/09 10:20:11;;;;;;;16.45;2.72;;;6.50;61.00;;;;;;4988358;28;20545;-73
2022/01/09 10:22:50;;;;;;;11.80;4.10;;;6.50;59.50;;;;;;4985781;28;20199;-73
2022/01/09 10:25:26;;;;;;;14.60;3.33;;;6.50;59.00;;;;;;4996150;28;20185;-72
2022/01/09 10:28:14;;;;;;;16.27;3.70;;;6.60;59.30;;;;;;4999795;28;20235;-73
2022/01/09 10:30:45;;;;;;;12.85;3.70;;;6.60;59.50;;;;;;5007831;23;20234;-68
2022/01/09 10:33:14;;;;;;;6.32;3.47;;;6.60;60.70;;;;;;5014645;28;20185;-68
2022/01/09 10:35:41;;;;;;;8.70;3.45;;;6.60;59.90;;;;;;5014809;28;20172;-69
2022/01/09 10:38:13;;;;;;;17.15;4.10;;;6.60;59.20;;;;;;5014379;28;20246;-67
2022/01/09 10:40:41;;;;;;;13.68;3.25;;;6.60;62.70;;;;;;5014784;28;20188;-69
2022/01/09 10:43:13;;;;;;;7.32;3.00;;;6.70;61.90;;;;;;5014665;28;20204;-67
2022/01/09 10:45:41;;;;;;;12.18;3.65;;;6.60;59.60;;;;;;5014879;28;20512;-68
2022/01/09 10:48:19;;;;;;;15.95;5.20;;;6.50;62.10;;;;;;5014376;28;20235;-68
2022/01/09 10:50:45;;;;;;;14.77;3.80;;;6.50;62.70;;;;;;5014828;28;20200;-68
2022/01/09 10:53:34;;;;;;;10.52;3.72;;;6.50;63.60;;;;;;5014753;28;20173;-68
2022/01/09 10:56:20;;;;;;;10.93;3.10;;;6.60;62.70;;;;;;5014783;28;20657;-68
2022/01/09 10:58:47;;;;;;;10.52;3.60;;;6.70;61.20;;;;;;5014662;28;20181;-68
2022/01/09 11:01:23;;;;;;;18.55;3.42;;;6.80;61.30;;;;;;5017094;28;20223;-68
2022/01/09 11:03:57;;;;;;;19.58;3.55;;;7.00;59.10;;;;;;5020039;28;20212;-69
2022/01/09 11:06:25;;;;;;;17.08;3.70;;;7.10;57.80;;;;;;5017496;28;20604;-69
2022/01/09 11:08:52;;;;;;;10.73;4.07;;;7.20;57.10;;;;;;5017466;28;20643;-68
2022/01/09 11:11:32;;;;;;;12.80;3.47;;;7.20;55.10;;;;;;4999262;28;20195;-68
2022/01/09 11:14:00;;;;;;;6.07;3.45;;;7.00;56.30;;;;;;5016717;28;20569;-68
2022/01/09 11:16:34;;;;;;;16.50;4.40;;;6.90;56.10;;;;;;5014395;28;20185;-69
2022/01/09 11:19:09;;;;;;;15.23;3.80;;;6.80;56.70;;;;;;5014370;28;20187;-68
2022/01/09 11:21:37;;;;;;;16.70;3.25;;;6.80;60.60;;;;;;5014096;28;20644;-69
2022/01/09 11:24:40;;;;;;;12.20;3.05;;;6.80;59.00;;;;;;5014045;28;20193;-69
2022/01/09 11:27:27;;;;;;;7.85;2.90;;;6.80;58.60;;;;;;5013449;28;20437;-68
2022/01/09 11:30:19;;;;;;;9.00;3.42;;;6.90;56.30;;;;;;4998012;28;20643;-69
2022/01/09 11:33:04;;;;;;;6.43;3.58;;;6.90;57.20;;;;;;5014209;28;20183;-70
2022/01/09 11:35:51;;;;;;;11.93;3.70;;;7.00;58.00;;;;;;5013749;28;20176;-68
2022/01/09 11:38:45;;;;;;;12.68;3.88;;;7.20;55.60;;;;;;5016499;28;20251;-68
2022/01/09 11:41:25;;;;;;;9.10;3.65;;;7.60;54.50;;;;;;5014685;28;20707;-69
2022/01/09 11:43:59;;;;;;;10.07;3.38;;;7.80;51.80;;;;;;5013532;28;20175;-69
2022/01/09 11:46:28;;;;;;;6.45;3.55;;;7.90;49.10;;;;;;4994927;28;20184;-69
2022/01/09 11:48:54;;;;;;;10.38;3.63;;;7.80;49.70;;;;;;5012767;28;20688;-68
2022/01/09 11:51:25;;;;;;;10.17;3.53;;;7.70;50.00;;;;;;5012757;28;20184;-69
2022/01/09 11:54:00;;;;;;;13.38;4.15;;;7.60;50.70;;;;;;5013020;28;20164;-69
2022/01/09 11:56:45;;;;;;;18.10;3.50;;;7.60;51.60;;;;;;5014485;28;20176;-70
2022/01/09 11:59:30;;;;;;;9.02;3.97;;;7.60;50.70;;;;;;5013429;28;20283;-69
2022/01/09 12:02:03;;;;;;;17.35;3.40;;;7.60;51.20;;;;;;4995968;28;20204;-68
2022/01/09 12:04:38;;;;;;;11.40;3.58;;;7.50;50.60;;;;;;4995377;28;20194;-69
2022/01/09 12:07:07;;;;;;;13.15;4.20;;;7.50;50.70;;;;;;5012631;28;20175;-69
2022/01/09 12:09:34;;;;;;;7.00;3.10;;;7.40;51.40;;;;;;5012630;28;20212;-69
2022/01/09 12:12:16;;;;;;;12.57;4.10;;;7.40;51.20;;;;;;5012709;28;20172;-68
2022/01/09 12:14:42;;;;;;;8.65;3.22;;;7.30;52.70;;;;;;5012859;28;20219;-68
2022/01/09 12:17:23;;;;;;;19.93;4.57;;;7.40;52.40;;;;;;5012172;28;20200;-68
2022/01/09 12:20:13;;;;;;;7.53;3.92;;;7.40;52.00;;;;;;5012396;28;20288;-68
2022/01/09 12:25:22;;;;;;;11.27;3.92;;;7.40;52.10;;;;;;5012401;28;20181;-69
2022/01/09 12:27:53;;;;;;;12.73;4.47;;;7.30;52.90;;;;;;5012220;28;20548;-70
2022/01/09 12:30:36;;;;;;;10.27;4.35;;;7.30;52.50;;;;;;5012032;28;20223;-68
2022/01/09 12:33:09;;;;;;;11.15;3.90;;;7.30;53.00;;;;;;5012442;28;20259;-68
2022/01/09 12:35:39;;;;;;;10.07;3.55;;;7.30;53.40;;;;;;5012356;28;20652;-69
2022/01/09 12:38:05;;;;;;;9.88;3.80;;;7.30;53.70;;;;;;5011943;28;20538;-70
2022/01/09 12:40:36;;;;;;;9.20;3.63;;;7.30;51.70;;;;;;4994280;28;20204;-70
2022/01/09 12:43:03;;;;;;;24.02;4.80;;;7.30;52.10;;;;;;4994525;28;20411;-70
2022/01/09 12:45:32;;;;;;;11.98;4.22;;;7.40;50.90;;;;;;5012671;28;20597;-71
2022/01/09 12:47:59;;;;;;;10.65;5.25;;;7.40;49.70;;;;;;5012135;28;20237;-70
2022/01/09 12:50:30;;;;;;;9.82;4.30;;;7.40;50.00;;;;;;5012338;28;20216;-70
2022/01/09 12:53:19;;;;;;;23.85;3.80;;;7.50;51.60;;;;;;5012897;28;20179;-71
2022/01/09 12:56:08;;;;;;;19.10;4.07;;;7.60;48.30;;;;;;5012576;28;20633;-72
2022/01/09 12:59:08;;;;;;;14.40;3.35;;;7.60;47.70;;;;;;4994794;28;20234;-71